sensor_id;sensor_type;location;lat;lon;timestamp;temperature;humidity
584;HTU21D;27024;54.068;12.116;2024-03-23T00:53:59;7.15;118.99
584;HTU21D;27024;54.068;12.116;2024-03-23T00:56:25;7.13;118.99
584;HTU21D;27024;54.068;12.116;2024-03-23T00:58:51;7.04;118.99
584;HTU21D;27024;54.068;12.116;2024-03-23T01:01:17;7.00;118.99
584;HTU21D;27024;54.068;12.116;2024-03-23T01:03:43;7.04;118.99
584;HTU21D;27024;54.068;12.116;2024-03-23T01:06:09;7.04;118.99
584;HTU21D;27024;54.068;12.116;2024-03-23T01:08:35;7.01;118.99
584;HTU21D;27024;54.068;12.116;2024-03-23T01:11:01;6.91;118.99
584;HTU21D;27024;54.068;12.116;2024-03-23T01:13:28;6.98;118.99
584;HTU21D;27024;54.068;12.116;2024-03-23T01:15:55;7.00;118.99
584;HTU21D;27024;54.068;12.116;2024-03-23T01:18:22;6.87;118.99
584;HTU21D;27024;54.068;12.116;2024-03-23T01:20:49;6.99;118.99
584;HTU21D;27024;54.068;12.116;2024-03-23T01:23:15;6.98;118.99
584;HTU21D;27024;54.068;12.116;2024-03-23T01:25:41;6.96;118.99
584;HTU21D;27024;54.068;12.116;2024-03-23T01:28:07;6.82;118.99
584;HTU21D;27024;54.068;12.116;2024-03-23T01:30:34;6.84;118.99
584;HTU21D;27024;54.068;12.116;2024-03-23T01:33:01;6.85;118.99
584;HTU21D;27024;54.068;12.116;2024-03-23T01:35:29;6.85;118.99
584;HTU21D;27024;54.068;12.116;2024-03-23T01:37:54;6.85;118.99
584;HTU21D;27024;54.068;12.116;2024-03-23T01:40:20;6.83;118.99
584;HTU21D;27024;54.068;12.116;2024-03-23T01:42:57;6.72;118.99
584;HTU21D;27024;54.068;12.116;2024-03-23T01:45:23;6.70;118.99
584;HTU21D;27024;54.068;12.116;2024-03-23T01:47:51;6.63;118.99
584;HTU21D;27024;54.068;12.116;2024-03-23T01:50:19;6.67;118.99
584;HTU21D;27024;54.068;12.116;2024-03-23T01:52:46;6.65;118.99
584;HTU21D;27024;54.068;12.116;2024-03-23T01:55:12;6.56;118.99
584;HTU21D;27024;54.068;12.116;2024-03-23T01:57:38;6.54;118.99
584;HTU21D;27024;54.068;12.116;2024-03-23T02:00:05;6.58;118.99
584;HTU21D;27024;54.068;12.116;2024-03-23T02:02:32;6.55;118.99
584;HTU21D;27024;54.068;12.116;2024-03-23T02:04:58;6.52;118.99
584;HTU21D;27024;54.068;12.116;2024-03-23T02:07:24;6.58;118.99
584;HTU21D;27024;54.068;12.116;2024-03-23T02:09:51;6.59;118.99
584;HTU21D;27024;54.068;12.116;2024-03-23T02:12:17;6.56;118.99
584;HTU21D;27024;54.068;12.116;2024-03-23T02:14:44;6.52;118.99
584;HTU21D;27024;54.068;12.116;2024-03-23T02:17:10;6.43;118.99
584;HTU21D;27024;54.068;12.116;2024-03-23T02:19:36;6.46;118.99
584;HTU21D;27024;54.068;12.116;2024-03-23T02:22:02;6.42;118.99
584;HTU21D;27024;54.068;12.116;2024-03-23T02:24:29;6.33;118.99
584;HTU21D;27024;54.068;12.116;2024-03-23T02:26:55;6.31;118.99
584;HTU21D;27024;54.068;12.116;2024-03-23T02:29:21;6.31;118.99
584;HTU21D;27024;54.068;12.116;2024-03-23T02:31:47;6.29;118.99
584;HTU21D;27024;54.068;12.116;2024-03-23T02:34:14;6.26;118.99
584;HTU21D;27024;54.068;12.116;2024-03-23T02:36:40;6.28;118.99
584;HTU21D;27024;54.068;12.116;2024-03-23T02:39:07;6.24;118.99
584;HTU21D;27024;54.068;12.116;2024-03-23T02:41:34;6.24;118.99
584;HTU21D;27024;54.068;12.116;2024-03-23T02:44:00;6.17;118.99
584;HTU21D;27024;54.068;12.116;2024-03-23T02:46:26;6.17;118.99
584;HTU21D;27024;54.068;12.116;2024-03-23T02:48:52;6.16;118.99
584;HTU21D;27024;54.068;12.116;2024-03-23T02:51:18;6.19;118.99
584;HTU21D;27024;54.068;12.116;2024-03-23T02:53:44;6.20;118.99
584;HTU21D;27024;54.068;12.116;2024-03-23T02:56:12;6.17;118.99
584;HTU21D;27024;54.068;12.116;2024-03-23T02:58:42;6.14;118.99
584;HTU21D;27024;54.068;12.116;2024-03-23T03:01:08;6.07;118.99
584;HTU21D;27024;54.068;12.116;2024-03-23T03:03:34;6.12;118.99
584;HTU21D;27024;54.068;12.116;2024-03-23T03:06:00;6.14;118.99
584;HTU21D;27024;54.068;12.116;2024-03-23T03:08:26;6.15;118.99
584;HTU21D;27024;54.068;12.116;2024-03-23T03:10:52;6.14;118.99
584;HTU21D;27024;54.068;12.116;2024-03-23T03:13:18;6.19;118.99
584;HTU21D;27024;54.068;12.116;2024-03-23T03:15:44;6.13;118.99
584;HTU21D;27024;54.068;12.116;2024-03-23T03:18:10;6.09;118.99
584;HTU21D;27024;54.068;12.116;2024-03-23T03:20:39;6.06;118.99
584;HTU21D;27024;54.068;12.116;2024-03-23T03:23:06;6.05;118.99
584;HTU21D;27024;54.068;12.116;2024-03-23T03:25:33;6.05;118.99
584;HTU21D;27024;54.068;12.116;2024-03-23T03:27:59;5.99;118.99
584;HTU21D;27024;54.068;12.116;2024-03-23T03:30:26;5.85;118.99
584;HTU21D;27024;54.068;12.116;2024-03-23T03:32:53;5.74;118.99
584;HTU21D;27024;54.068;12.116;2024-03-23T03:35:19;5.70;118.99
584;HTU21D;27024;54.068;12.116;2024-03-23T03:37:45;5.75;118.99
584;HTU21D;27024;54.068;12.116;2024-03-23T03:40:12;5.76;118.99
584;HTU21D;27024;54.068;12.116;2024-03-23T03:42:38;5.68;118.99
584;HTU21D;27024;54.068;12.116;2024-03-23T03:45:04;5.69;118.99
584;HTU21D;27024;54.068;12.116;2024-03-23T03:47:31;5.65;118.99
584;HTU21D;27024;54.068;12.116;2024-03-23T03:49:56;5.62;118.99
584;HTU21D;27024;54.068;12.116;2024-03-23T03:52:22;5.52;118.99
584;HTU21D;27024;54.068;12.116;2024-03-23T03:54:48;5.46;118.99
584;HTU21D;27024;54.068;12.116;2024-03-23T03:57:15;5.39;118.99
584;HTU21D;27024;54.068;12.116;2024-03-23T03:59:40;5.39;118.99
584;HTU21D;27024;54.068;12.116;2024-03-23T04:02:06;5.39;118.99
584;HTU21D;27024;54.068;12.116;2024-03-23T04:04:32;5.37;118.99
584;HTU21D;27024;54.068;12.116;2024-03-23T04:07:00;5.31;118.99
584;HTU21D;27024;54.068;12.116;2024-03-23T04:09:25;5.51;118.99
584;HTU21D;27024;54.068;12.116;2024-03-23T04:11:51;5.37;118.99
584;HTU21D;27024;54.068;12.116;2024-03-23T04:14:17;5.25;118.99
584;HTU21D;27024;54.068;12.116;2024-03-23T04:16:43;5.38;118.99
584;HTU21D;27024;54.068;12.116;2024-03-23T04:19:09;5.26;118.99
584;HTU21D;27024;54.068;12.116;2024-03-23T04:21:37;5.31;118.99
584;HTU21D;27024;54.068;12.116;2024-03-23T04:24:03;5.34;118.99
584;HTU21D;27024;54.068;12.116;2024-03-23T04:26:29;5.25;118.99
584;HTU21D;27024;54.068;12.116;2024-03-23T04:28:55;5.15;118.99
584;HTU21D;27024;54.068;12.116;2024-03-23T04:31:21;5.08;118.99
584;HTU21D;27024;54.068;12.116;2024-03-23T04:33:47;5.05;118.99
584;HTU21D;27024;54.068;12.116;2024-03-23T04:36:13;4.97;118.99
584;HTU21D;27024;54.068;12.116;2024-03-23T04:38:40;4.97;118.99
584;HTU21D;27024;54.068;12.116;2024-03-23T04:41:05;4.97;118.99
584;HTU21D;27024;54.068;12.116;2024-03-23T04:43:31;4.83;118.99
584;HTU21D;27024;54.068;12.116;2024-03-23T04:45:57;4.86;118.99
584;HTU21D;27024;54.068;12.116;2024-03-23T04:48:24;4.79;118.99
584;HTU21D;27024;54.068;12.116;2024-03-23T04:50:55;4.81;118.99
584;HTU21D;27024;54.068;12.116;2024-03-23T04:53:24;4.83;118.99
584;HTU21D;27024;54.068;12.116;2024-03-23T04:55:57;4.81;118.99
584;HTU21D;27024;54.068;12.116;2024-03-23T04:58:25;4.77;118.99
584;HTU21D;27024;54.068;12.116;2024-03-23T05:00:55;4.75;118.99
584;HTU21D;27024;54.068;12.116;2024-03-23T05:03:22;4.66;118.99
584;HTU21D;27024;54.068;12.116;2024-03-23T05:05:48;4.66;118.99
584;HTU21D;27024;54.068;12.116;2024-03-23T05:08:15;4.65;118.99
584;HTU21D;27024;54.068;12.116;2024-03-23T05:10:42;4.68;118.99
584;HTU21D;27024;54.068;12.116;2024-03-23T05:13:08;4.54;118.99
584;HTU21D;27024;54.068;12.116;2024-03-23T05:15:34;4.51;118.99
584;HTU21D;27024;54.068;12.116;2024-03-23T05:18:01;4.43;118.99
584;HTU21D;27024;54.068;12.116;2024-03-23T05:20:27;4.36;118.99
584;HTU21D;27024;54.068;12.116;2024-03-23T05:22:54;4.41;118.99
584;HTU21D;27024;54.068;12.116;2024-03-23T05:25:20;4.52;118.99
584;HTU21D;27024;54.068;12.116;2024-03-23T05:27:46;4.47;118.99
584;HTU21D;27024;54.068;12.116;2024-03-23T05:30:13;4.48;118.99
584;HTU21D;27024;54.068;12.116;2024-03-23T05:32:39;4.41;118.99
584;HTU21D;27024;54.068;12.116;2024-03-23T05:35:07;4.46;118.99
584;HTU21D;27024;54.068;12.116;2024-03-23T05:37:34;4.46;118.99
584;HTU21D;27024;54.068;12.116;2024-03-23T05:40:00;4.50;118.99
584;HTU21D;27024;54.068;12.116;2024-03-23T05:42:26;4.51;118.99
584;HTU21D;27024;54.068;12.116;2024-03-23T05:44:52;4.58;118.99
584;HTU21D;27024;54.068;12.116;2024-03-23T05:47:19;4.64;118.99
584;HTU21D;27024;54.068;12.116;2024-03-23T05:49:46;4.61;118.99
584;HTU21D;27024;54.068;12.116;2024-03-23T05:52:12;4.59;118.99
584;HTU21D;27024;54.068;12.116;2024-03-23T05:54:39;4.64;118.99
584;HTU21D;27024;54.068;12.116;2024-03-23T05:57:05;4.64;118.99
584;HTU21D;27024;54.068;12.116;2024-03-23T05:59:33;4.69;118.99
584;HTU21D;27024;54.068;12.116;2024-03-23T06:01:59;4.76;118.99
584;HTU21D;27024;54.068;12.116;2024-03-23T06:04:25;4.83;118.99
584;HTU21D;27024;54.068;12.116;2024-03-23T06:06:51;4.89;118.99
584;HTU21D;27024;54.068;12.116;2024-03-23T06:09:20;4.96;118.99
584;HTU21D;27024;54.068;12.116;2024-03-23T06:11:46;5.04;118.99
584;HTU21D;27024;54.068;12.116;2024-03-23T06:14:12;5.07;118.99
584;HTU21D;27024;54.068;12.116;2024-03-23T06:16:38;5.13;118.99
584;HTU21D;27024;54.068;12.116;2024-03-23T06:19:04;5.28;118.99
584;HTU21D;27024;54.068;12.116;2024-03-23T06:21:32;5.36;118.99
584;HTU21D;27024;54.068;12.116;2024-03-23T06:23:59;5.31;118.99
584;HTU21D;27024;54.068;12.116;2024-03-23T06:26:25;5.38;118.99
584;HTU21D;27024;54.068;12.116;2024-03-23T06:28:51;5.43;118.99
584;HTU21D;27024;54.068;12.116;2024-03-23T06:31:17;5.49;118.99
584;HTU21D;27024;54.068;12.116;2024-03-23T06:33:43;5.53;118.99
584;HTU21D;27024;54.068;12.116;2024-03-23T06:36:10;5.66;118.99
584;HTU21D;27024;54.068;12.116;2024-03-23T06:38:37;5.71;118.99
584;HTU21D;27024;54.068;12.116;2024-03-23T06:41:06;5.69;118.99
584;HTU21D;27024;54.068;12.116;2024-03-23T06:43:32;5.63;118.99
584;HTU21D;27024;54.068;12.116;2024-03-23T06:45:58;5.77;118.99
584;HTU21D;27024;54.068;12.116;2024-03-23T06:48:24;5.82;118.99
584;HTU21D;27024;54.068;12.116;2024-03-23T06:50:56;5.93;118.99
584;HTU21D;27024;54.068;12.116;2024-03-23T06:53:22;6.07;118.99
584;HTU21D;27024;54.068;12.116;2024-03-23T06:55:53;6.04;118.99
584;HTU21D;27024;54.068;12.116;2024-03-23T06:58:20;6.04;118.99
584;HTU21D;27024;54.068;12.116;2024-03-23T07:00:46;6.13;118.99
584;HTU21D;27024;54.068;12.116;2024-03-23T07:03:12;6.16;118.99
584;HTU21D;27024;54.068;12.116;2024-03-23T07:05:38;6.27;118.99
584;HTU21D;27024;54.068;12.116;2024-03-23T07:08:05;6.59;118.99
584;HTU21D;27024;54.068;12.116;2024-03-23T07:10:31;6.26;118.99
584;HTU21D;27024;54.068;12.116;2024-03-23T07:12:57;6.17;118.99
584;HTU21D;27024;54.068;12.116;2024-03-23T07:15:23;6.35;118.99
584;HTU21D;27024;54.068;12.116;2024-03-23T07:17:49;6.37;118.99
584;HTU21D;27024;54.068;12.116;2024-03-23T07:20:15;6.35;118.99
584;HTU21D;27024;54.068;12.116;2024-03-23T07:22:41;6.51;118.99
584;HTU21D;27024;54.068;12.116;2024-03-23T07:25:07;6.57;118.99
584;HTU21D;27024;54.068;12.116;2024-03-23T07:27:33;6.70;118.99
584;HTU21D;27024;54.068;12.116;2024-03-23T07:29:59;6.84;118.99
584;HTU21D;27024;54.068;12.116;2024-03-23T07:32:27;6.94;118.99
584;HTU21D;27024;54.068;12.116;2024-03-23T07:34:52;6.88;118.99
584;HTU21D;27024;54.068;12.116;2024-03-23T07:37:18;6.82;118.99
584;HTU21D;27024;54.068;12.116;2024-03-23T07:39:44;6.87;118.99
584;HTU21D;27024;54.068;12.116;2024-03-23T07:42:10;7.14;118.99
584;HTU21D;27024;54.068;12.116;2024-03-23T07:44:36;7.13;118.99
584;HTU21D;27024;54.068;12.116;2024-03-23T07:47:03;7.22;118.99
584;HTU21D;27024;54.068;12.116;2024-03-23T07:49:29;7.19;118.99
584;HTU21D;27024;54.068;12.116;2024-03-23T07:51:55;7.28;118.99
584;HTU21D;27024;54.068;12.116;2024-03-23T07:54:21;7.32;118.99
584;HTU21D;27024;54.068;12.116;2024-03-23T07:56:48;7.28;118.99
584;HTU21D;27024;54.068;12.116;2024-03-23T07:59:13;7.35;118.99
584;HTU21D;27024;54.068;12.116;2024-03-23T08:01:40;7.25;118.99
584;HTU21D;27024;54.068;12.116;2024-03-23T08:04:06;7.46;118.99
584;HTU21D;27024;54.068;12.116;2024-03-23T08:06:32;7.48;118.99
584;HTU21D;27024;54.068;12.116;2024-03-23T08:08:58;7.75;118.99
584;HTU21D;27024;54.068;12.116;2024-03-23T08:11:31;7.93;118.99
584;HTU21D;27024;54.068;12.116;2024-03-23T08:13:57;8.18;118.99
584;HTU21D;27024;54.068;12.116;2024-03-23T08:16:24;8.26;118.99
584;HTU21D;27024;54.068;12.116;2024-03-23T08:18:53;8.27;118.99
584;HTU21D;27024;54.068;12.116;2024-03-23T08:21:21;8.56;118.99
584;HTU21D;27024;54.068;12.116;2024-03-23T08:23:47;8.58;118.99
584;HTU21D;27024;54.068;12.116;2024-03-23T08:26:14;8.22;118.99
584;HTU21D;27024;54.068;12.116;2024-03-23T08:28:41;8.27;118.99
584;HTU21D;27024;54.068;12.116;2024-03-23T08:31:08;8.36;118.99
584;HTU21D;27024;54.068;12.116;2024-03-23T08:33:35;8.45;118.99
584;HTU21D;27024;54.068;12.116;2024-03-23T08:36:08;8.51;118.99
584;HTU21D;27024;54.068;12.116;2024-03-23T08:38:34;8.66;118.99
584;HTU21D;27024;54.068;12.116;2024-03-23T08:43:37;8.71;118.99
584;HTU21D;27024;54.068;12.116;2024-03-23T08:46:07;8.88;118.99
584;HTU21D;27024;54.068;12.116;2024-03-23T08:48:41;8.85;118.99
584;HTU21D;27024;54.068;12.116;2024-03-23T08:51:10;9.01;118.99
584;HTU21D;27024;54.068;12.116;2024-03-23T08:53:37;8.93;118.99
584;HTU21D;27024;54.068;12.116;2024-03-23T08:56:04;8.92;118.99
584;HTU21D;27024;54.068;12.116;2024-03-23T08:58:31;8.82;118.99
584;HTU21D;27024;54.068;12.116;2024-03-23T09:01:07;8.89;118.99
584;HTU21D;27024;54.068;12.116;2024-03-23T09:03:34;8.83;118.99
584;HTU21D;27024;54.068;12.116;2024-03-23T09:06:02;9.01;118.99
584;HTU21D;27024;54.068;12.116;2024-03-23T09:08:32;9.06;118.99
584;HTU21D;27024;54.068;12.116;2024-03-23T09:11:03;8.91;118.99
584;HTU21D;27024;54.068;12.116;2024-03-23T09:13:33;9.14;118.99
584;HTU21D;27024;54.068;12.116;2024-03-23T09:15:59;9.40;118.99
584;HTU21D;27024;54.068;12.116;2024-03-23T09:18:26;9.45;118.99
584;HTU21D;27024;54.068;12.116;2024-03-23T09:20:52;9.38;118.99
584;HTU21D;27024;54.068;12.116;2024-03-23T09:23:23;9.75;118.99
584;HTU21D;27024;54.068;12.116;2024-03-23T09:25:49;9.98;118.99
584;HTU21D;27024;54.068;12.116;2024-03-23T09:28:15;10.25;118.99
584;HTU21D;27024;54.068;12.116;2024-03-23T09:30:41;10.52;118.99
584;HTU21D;27024;54.068;12.116;2024-03-23T09:33:10;10.40;118.99
584;HTU21D;27024;54.068;12.116;2024-03-23T09:35:41;10.65;118.99
584;HTU21D;27024;54.068;12.116;2024-03-23T09:38:08;10.44;118.99
584;HTU21D;27024;54.068;12.116;2024-03-23T09:40:39;11.09;118.99
584;HTU21D;27024;54.068;12.116;2024-03-23T09:43:06;11.27;118.99
584;HTU21D;27024;54.068;12.116;2024-03-23T09:45:35;11.61;118.99
584;HTU21D;27024;54.068;12.116;2024-03-23T09:48:03;11.94;118.99
584;HTU21D;27024;54.068;12.116;2024-03-23T09:50:29;11.81;118.99
584;HTU21D;27024;54.068;12.116;2024-03-23T09:52:56;12.00;118.99
584;HTU21D;27024;54.068;12.116;2024-03-23T09:55:22;12.17;118.99
584;HTU21D;27024;54.068;12.116;2024-03-23T09:57:48;12.28;118.99
584;HTU21D;27024;54.068;12.116;2024-03-23T10:00:14;12.18;118.99
584;HTU21D;27024;54.068;12.116;2024-03-23T10:02:40;12.94;118.99
584;HTU21D;27024;54.068;12.116;2024-03-23T10:05:20;13.29;118.99
584;HTU21D;27024;54.068;12.116;2024-03-23T10:07:48;13.30;118.99
584;HTU21D;27024;54.068;12.116;2024-03-23T10:10:15;13.00;118.99
584;HTU21D;27024;54.068;12.116;2024-03-23T10:12:49;12.62;118.99
584;HTU21D;27024;54.068;12.116;2024-03-23T10:15:24;13.44;118.99
584;HTU21D;27024;54.068;12.116;2024-03-23T10:17:50;13.82;118.99
584;HTU21D;27024;54.068;12.116;2024-03-23T10:20:21;14.40;118.99
584;HTU21D;27024;54.068;12.116;2024-03-23T10:22:48;14.53;90.57
584;HTU21D;27024;54.068;12.116;2024-03-23T10:25:15;14.37;90.17
584;HTU21D;27024;54.068;12.116;2024-03-23T10:27:42;14.64;87.58
584;HTU21D;27024;54.068;12.116;2024-03-23T10:32:35;15.48;73.21
584;HTU21D;27024;54.068;12.116;2024-03-23T10:35:34;15.60;83.20
584;HTU21D;27024;54.068;12.116;2024-03-23T10:38:03;14.59;90.85
584;HTU21D;27024;54.068;12.116;2024-03-23T10:40:30;14.75;88.25
584;HTU21D;27024;54.068;12.116;2024-03-23T10:42:58;14.30;90.66
584;HTU21D;27024;54.068;12.116;2024-03-23T10:45:24;14.33;118.99
584;HTU21D;27024;54.068;12.116;2024-03-23T10:47:51;13.95;73.25
584;HTU21D;27024;54.068;12.116;2024-03-23T10:50:17;13.58;71.65
584;HTU21D;27024;54.068;12.116;2024-03-23T10:52:47;13.05;69.90
584;HTU21D;27024;54.068;12.116;2024-03-23T10:55:16;12.70;89.95
584;HTU21D;27024;54.068;12.116;2024-03-23T10:57:53;12.23;96.71
584;HTU21D;27024;54.068;12.116;2024-03-23T11:00:20;12.07;118.99
584;HTU21D;27024;54.068;12.116;2024-03-23T11:02:49;12.37;118.99
584;HTU21D;27024;54.068;12.116;2024-03-23T11:05:29;12.48;118.99
584;HTU21D;27024;54.068;12.116;2024-03-23T11:07:55;13.06;118.99
584;HTU21D;27024;54.068;12.116;2024-03-23T11:10:31;14.28;101.22
584;HTU21D;27024;54.068;12.116;2024-03-23T11:13:22;15.10;59.64
584;HTU21D;27024;54.068;12.116;2024-03-23T11:15:48;14.77;34.90
584;HTU21D;27024;54.068;12.116;2024-03-23T11:18:21;14.92;44.03
584;HTU21D;27024;54.068;12.116;2024-03-23T11:20:47;14.30;12.58
584;HTU21D;27024;54.068;12.116;2024-03-23T11:23:32;14.92;41.15
584;HTU21D;27024;54.068;12.116;2024-03-23T11:26:04;15.56;27.28
584;HTU21D;27024;54.068;12.116;2024-03-23T11:28:33;15.60;-6.00
584;HTU21D;27024;54.068;12.116;2024-03-23T11:31:09;15.51;-6.00
584;HTU21D;27024;54.068;12.116;2024-03-23T11:33:41;16.12;-6.00
584;HTU21D;27024;54.068;12.116;2024-03-23T11:36:07;16.13;-6.00
584;HTU21D;27024;54.068;12.116;2024-03-23T11:38:43;15.98;-6.00
584;HTU21D;27024;54.068;12.116;2024-03-23T11:41:17;15.95;-6.00
584;HTU21D;27024;54.068;12.116;2024-03-23T11:43:47;16.04;-6.00
584;HTU21D;27024;54.068;12.116;2024-03-23T11:46:22;16.67;-6.00
584;HTU21D;27024;54.068;12.116;2024-03-23T11:48:51;16.70;-6.00
584;HTU21D;27024;54.068;12.116;2024-03-23T11:51:17;16.73;-6.00
584;HTU21D;27024;54.068;12.116;2024-03-23T11:53:43;16.81;-6.00
584;HTU21D;27024;54.068;12.116;2024-03-23T11:56:09;16.70;-6.00
584;HTU21D;27024;54.068;12.116;2024-03-23T11:58:35;16.17;-6.00
584;HTU21D;27024;54.068;12.116;2024-03-23T12:01:03;14.52;-6.00
584;HTU21D;27024;54.068;12.116;2024-03-23T12:03:31;13.73;50.14
584;HTU21D;27024;54.068;12.116;2024-03-23T12:06:00;13.33;84.30
584;HTU21D;27024;54.068;12.116;2024-03-23T12:08:31;13.05;95.74
584;HTU21D;27024;54.068;12.116;2024-03-23T12:13:30;12.43;118.99
584;HTU21D;27024;54.068;12.116;2024-03-23T12:16:09;12.08;118.99
584;HTU21D;27024;54.068;12.116;2024-03-23T12:18:39;11.64;118.99
584;HTU21D;27024;54.068;12.116;2024-03-23T12:21:06;11.22;118.99
584;HTU21D;27024;54.068;12.116;2024-03-23T12:23:33;10.85;118.99
584;HTU21D;27024;54.068;12.116;2024-03-23T12:26:01;10.56;118.99
584;HTU21D;27024;54.068;12.116;2024-03-23T12:28:27;10.54;118.99
584;HTU21D;27024;54.068;12.116;2024-03-23T12:30:56;10.43;118.99
584;HTU21D;27024;54.068;12.116;2024-03-23T12:33:22;10.46;118.99
584;HTU21D;27024;54.068;12.116;2024-03-23T12:35:52;10.87;118.99
584;HTU21D;27024;54.068;12.116;2024-03-23T12:38:19;11.67;118.99
584;HTU21D;27024;54.068;12.116;2024-03-23T12:40:49;12.32;118.99
584;HTU21D;27024;54.068;12.116;2024-03-23T12:43:16;12.63;118.99
584;HTU21D;27024;54.068;12.116;2024-03-23T12:45:46;13.09;118.99
584;HTU21D;27024;54.068;12.116;2024-03-23T12:48:13;12.89;118.99
584;HTU21D;27024;54.068;12.116;2024-03-23T12:50:39;12.63;118.99
584;HTU21D;27024;54.068;12.116;2024-03-23T12:53:05;12.69;118.99
584;HTU21D;27024;54.068;12.116;2024-03-23T12:55:31;13.14;118.99
584;HTU21D;27024;54.068;12.116;2024-03-23T12:57:57;13.53;118.99
584;HTU21D;27024;54.068;12.116;2024-03-23T13:00:23;13.80;118.99
584;HTU21D;27024;54.068;12.116;2024-03-23T13:02:49;13.11;118.99
584;HTU21D;27024;54.068;12.116;2024-03-23T13:05:15;12.99;118.99
584;HTU21D;27024;54.068;12.116;2024-03-23T13:07:41;13.07;118.99
584;HTU21D;27024;54.068;12.116;2024-03-23T13:10:07;12.75;118.99
584;HTU21D;27024;54.068;12.116;2024-03-23T13:12:34;12.87;118.99
584;HTU21D;27024;54.068;12.116;2024-03-23T13:15:00;12.92;118.99
584;HTU21D;27024;54.068;12.116;2024-03-23T13:17:27;12.97;118.99
584;HTU21D;27024;54.068;12.116;2024-03-23T13:19:54;12.52;118.99
584;HTU21D;27024;54.068;12.116;2024-03-23T13:22:21;12.19;118.99
584;HTU21D;27024;54.068;12.116;2024-03-23T13:24:47;11.84;118.99
584;HTU21D;27024;54.068;12.116;2024-03-23T13:27:13;11.37;118.99
584;HTU21D;27024;54.068;12.116;2024-03-23T13:29:39;10.75;118.99
584;HTU21D;27024;54.068;12.116;2024-03-23T13:32:06;10.73;118.99
584;HTU21D;27024;54.068;12.116;2024-03-23T13:34:32;10.64;118.99
584;HTU21D;27024;54.068;12.116;2024-03-23T13:37:01;10.64;118.99
584;HTU21D;27024;54.068;12.116;2024-03-23T13:39:27;10.50;118.99
584;HTU21D;27024;54.068;12.116;2024-03-23T13:41:53;10.64;118.99
584;HTU21D;27024;54.068;12.116;2024-03-23T13:44:20;10.92;118.99
584;HTU21D;27024;54.068;12.116;2024-03-23T13:46:46;11.16;118.99
584;HTU21D;27024;54.068;12.116;2024-03-23T13:49:29;10.80;118.99
584;HTU21D;27024;54.068;12.116;2024-03-23T13:51:57;10.63;118.99
584;HTU21D;27024;54.068;12.116;2024-03-23T13:54:27;10.74;118.99
584;HTU21D;27024;54.068;12.116;2024-03-23T13:56:55;10.74;118.99
584;HTU21D;27024;54.068;12.116;2024-03-23T13:59:21;10.78;118.99
584;HTU21D;27024;54.068;12.116;2024-03-23T14:01:49;11.13;118.99
584;HTU21D;27024;54.068;12.116;2024-03-23T14:04:15;11.69;118.99
584;HTU21D;27024;54.068;12.116;2024-03-23T14:06:48;13.00;118.99
584;HTU21D;27024;54.068;12.116;2024-03-23T14:09:15;13.43;103.02
584;HTU21D;27024;54.068;12.116;2024-03-23T14:11:47;13.66;86.83
584;HTU21D;27024;54.068;12.116;2024-03-23T14:14:13;13.96;66.27
584;HTU21D;27024;54.068;12.116;2024-03-23T14:16:39;14.49;69.54
584;HTU21D;27024;54.068;12.116;2024-03-23T14:19:05;15.07;39.23
584;HTU21D;27024;54.068;12.116;2024-03-23T14:21:32;15.14;21.18
584;HTU21D;27024;54.068;12.116;2024-03-23T14:23:58;15.23;36.47
584;HTU21D;27024;54.068;12.116;2024-03-23T14:26:24;14.51;22.82
584;HTU21D;27024;54.068;12.116;2024-03-23T14:28:50;14.97;24.78
584;HTU21D;27024;54.068;12.116;2024-03-23T14:31:16;14.09;46.63
584;HTU21D;27024;54.068;12.116;2024-03-23T14:33:42;14.15;56.89
584;HTU21D;27024;54.068;12.116;2024-03-23T14:36:13;13.84;69.44
584;HTU21D;27024;54.068;12.116;2024-03-23T14:38:39;12.88;66.32
584;HTU21D;27024;54.068;12.116;2024-03-23T14:41:06;12.46;84.45
584;HTU21D;27024;54.068;12.116;2024-03-23T14:43:32;12.23;118.99
584;HTU21D;27024;54.068;12.116;2024-03-23T14:48:34;11.62;118.99
584;HTU21D;27024;54.068;12.116;2024-03-23T14:51:02;11.28;118.99
584;HTU21D;27024;54.068;12.116;2024-03-23T14:53:32;10.49;118.99
584;HTU21D;27024;54.068;12.116;2024-03-23T14:56:02;9.59;118.99
584;HTU21D;27024;54.068;12.116;2024-03-23T14:58:29;9.01;118.99
584;HTU21D;27024;54.068;12.116;2024-03-23T15:01:06;9.05;118.99
584;HTU21D;27024;54.068;12.116;2024-03-23T15:03:38;9.23;118.99
584;HTU21D;27024;54.068;12.116;2024-03-23T15:06:09;9.33;118.99
584;HTU21D;27024;54.068;12.116;2024-03-23T15:08:35;9.41;118.99
584;HTU21D;27024;54.068;12.116;2024-03-23T15:11:03;9.42;118.99
584;HTU21D;27024;54.068;12.116;2024-03-23T15:13:32;9.71;118.99
584;HTU21D;27024;54.068;12.116;2024-03-23T15:15:58;9.75;118.99
584;HTU21D;27024;54.068;12.116;2024-03-23T15:18:24;9.72;118.99
584;HTU21D;27024;54.068;12.116;2024-03-23T15:20:56;9.84;118.99
584;HTU21D;27024;54.068;12.116;2024-03-23T15:23:22;10.01;118.99
584;HTU21D;27024;54.068;12.116;2024-03-23T15:25:58;10.27;118.99
584;HTU21D;27024;54.068;12.116;2024-03-23T15:28:25;10.40;118.99
584;HTU21D;27024;54.068;12.116;2024-03-23T15:30:59;10.71;118.99
584;HTU21D;27024;54.068;12.116;2024-03-23T15:33:25;10.88;118.99
584;HTU21D;27024;54.068;12.116;2024-03-23T15:35:51;10.93;118.99
584;HTU21D;27024;54.068;12.116;2024-03-23T15:38:17;11.09;118.99
584;HTU21D;27024;54.068;12.116;2024-03-23T15:40:51;10.96;118.99
584;HTU21D;27024;54.068;12.116;2024-03-23T15:43:17;10.70;118.99
584;HTU21D;27024;54.068;12.116;2024-03-23T15:45:43;10.66;118.99
584;HTU21D;27024;54.068;12.116;2024-03-23T15:48:10;10.69;118.99
584;HTU21D;27024;54.068;12.116;2024-03-23T15:50:36;11.14;118.99
584;HTU21D;27024;54.068;12.116;2024-03-23T15:53:03;11.32;118.99
584;HTU21D;27024;54.068;12.116;2024-03-23T15:55:33;11.51;118.99
584;HTU21D;27024;54.068;12.116;2024-03-23T15:58:22;11.56;118.99
584;HTU21D;27024;54.068;12.116;2024-03-23T16:00:56;11.77;118.99
584;HTU21D;27024;54.068;12.116;2024-03-23T16:03:27;12.20;118.99
584;HTU21D;27024;54.068;12.116;2024-03-23T16:06:02;12.19;116.28
584;HTU21D;27024;54.068;12.116;2024-03-23T16:08:48;12.32;107.11
584;HTU21D;27024;54.068;12.116;2024-03-23T16:11:22;12.25;100.38
584;HTU21D;27024;54.068;12.116;2024-03-23T16:13:48;12.22;103.25
584;HTU21D;27024;54.068;12.116;2024-03-23T16:16:14;12.59;93.87
584;HTU21D;27024;54.068;12.116;2024-03-23T16:18:42;12.50;98.09
584;HTU21D;27024;54.068;12.116;2024-03-23T16:21:09;12.64;97.87
584;HTU21D;27024;54.068;12.116;2024-03-23T16:23:36;12.32;103.98
584;HTU21D;27024;54.068;12.116;2024-03-23T16:26:04;12.00;112.03
584;HTU21D;27024;54.068;12.116;2024-03-23T16:28:34;11.36;118.99
584;HTU21D;27024;54.068;12.116;2024-03-23T16:31:08;11.25;118.99
584;HTU21D;27024;54.068;12.116;2024-03-23T16:33:37;10.99;118.99